createdAt,value
2022-09-04T00:02:37.419Z,99.90
2022-09-04T00:05:37.952Z,99.90
2022-09-04T00:08:30.034Z,99.90
2022-09-04T00:11:34.287Z,99.90
2022-09-04T00:14:10.670Z,99.90
2022-09-04T00:17:06.077Z,99.90
2022-09-04T00:19:49.898Z,99.90
2022-09-04T00:22:53.779Z,99.90
2022-09-04T00:25:38.597Z,99.90
2022-09-04T00:28:19.600Z,99.90
2022-09-04T00:31:04.363Z,99.90
2022-09-04T00:33:45.937Z,99.90
2022-09-04T00:36:17.218Z,99.90
2022-09-04T00:39:15.108Z,99.90
2022-09-04T00:42:21.868Z,99.90
2022-09-04T00:45:46.420Z,99.90
2022-09-04T00:48:39.734Z,99.90
2022-09-04T00:51:17.116Z,99.90
2022-09-04T00:53:55.880Z,99.90
2022-09-04T00:56:35.176Z,99.90
2022-09-04T00:59:43.995Z,99.90
2022-09-04T01:02:59.890Z,99.90
2022-09-04T01:05:45.478Z,99.90
2022-09-04T01:08:56.475Z,99.90
2022-09-04T01:12:10.869Z,99.90
2022-09-04T01:15:37.659Z,99.90
2022-09-04T01:18:25.831Z,99.90
2022-09-04T01:21:34.650Z,99.90
2022-09-04T01:24:28.421Z,99.90
2022-09-04T01:27:29.353Z,99.90
2022-09-04T01:30:05.933Z,99.90
2022-09-04T01:33:01.947Z,99.90
2022-09-04T01:35:45.040Z,99.90
2022-09-04T01:38:49.036Z,99.90
2022-09-04T01:41:56.910Z,99.90
2022-09-04T01:44:23.767Z,99.90
2022-09-04T01:47:21.386Z,99.90
2022-09-04T01:50:04.133Z,99.90
2022-09-04T01:52:40.566Z,99.90
2022-09-04T01:55:24.168Z,99.90
2022-09-04T01:58:27.560Z,99.90
2022-09-04T02:01:22.083Z,99.90
2022-09-04T02:04:08.097Z,99.90
2022-09-04T02:06:59.490Z,99.90
2022-09-04T02:09:47.306Z,99.90
2022-09-04T02:12:42.574Z,99.90
2022-09-04T02:15:15.840Z,99.90
2022-09-04T02:18:19.834Z,99.90
2022-09-04T02:21:27.445Z,99.90
2022-09-04T02:24:34.922Z,99.90
2022-09-04T02:27:11.089Z,99.90
2022-09-04T02:30:01.364Z,99.90
2022-09-04T02:33:15.137Z,99.90
2022-09-04T02:36:08.052Z,99.90
2022-09-04T02:39:28.111Z,99.90
2022-09-04T02:42:32.163Z,99.90
2022-09-04T02:45:46.545Z,99.90
2022-09-04T02:48:52.187Z,99.90
2022-09-04T02:51:54.467Z,99.90
2022-09-04T02:54:56.241Z,99.90
2022-09-04T02:57:55.097Z,99.90
2022-09-04T03:00:46.419Z,99.90
2022-09-04T03:03:29.970Z,99.90
2022-09-04T03:06:07.081Z,99.90
2022-09-04T03:08:57.047Z,99.90
2022-09-04T03:11:53.740Z,99.90
2022-09-04T03:14:34.229Z,99.90
2022-09-04T03:17:28.150Z,99.90
2022-09-04T03:20:18.406Z,99.90
2022-09-04T03:23:15.592Z,99.90
2022-09-04T03:26:02.591Z,99.90
2022-09-04T03:29:10.010Z,99.90
2022-09-04T03:31:41.060Z,99.90
2022-09-04T03:34:36.851Z,99.90
2022-09-04T03:37:50.054Z,99.90
2022-09-04T03:40:45.958Z,99.90
2022-09-04T03:43:52.282Z,99.90
2022-09-04T03:47:03.799Z,99.90
2022-09-04T03:49:55.039Z,99.90
2022-09-04T03:53:31.717Z,99.90
2022-09-04T03:56:42.019Z,99.90
2022-09-04T03:59:13.595Z,99.90
2022-09-04T04:02:30.314Z,99.90
2022-09-04T04:05:22.278Z,99.90
2022-09-04T04:08:14.945Z,99.90
2022-09-04T04:10:53.375Z,99.90
2022-09-04T04:13:37.220Z,99.90
2022-09-04T04:16:31.317Z,99.90
2022-09-04T04:19:23.461Z,99.90
2022-09-04T04:22:07.871Z,99.90
2022-09-04T04:25:02.542Z,99.90
2022-09-04T04:27:59.110Z,99.90
2022-09-04T04:30:43.826Z,99.90
2022-09-04T04:33:53.817Z,99.90
2022-09-04T04:36:51.174Z,99.90
2022-09-04T04:39:49.830Z,99.90
2022-09-04T04:42:55.626Z,99.90
2022-09-04T04:46:13.129Z,99.90
2022-09-04T04:49:07.671Z,99.90
2022-09-04T04:52:08.671Z,99.90
2022-09-04T04:55:10.683Z,99.90
2022-09-04T04:57:56.690Z,99.90
2022-09-04T05:00:39.174Z,99.90
2022-09-04T05:04:02.500Z,99.90
2022-09-04T05:06:43.324Z,99.90
2022-09-04T05:09:31.671Z,99.90
2022-09-04T05:12:23.675Z,99.90
2022-09-04T05:15:19.243Z,99.90
2022-09-04T05:18:04.822Z,99.90
2022-09-04T05:21:05.062Z,99.90
2022-09-04T05:24:03.829Z,99.90
2022-09-04T05:26:47.334Z,99.90
2022-09-04T05:29:35.275Z,99.90
2022-09-04T05:32:37.129Z,99.90
2022-09-04T05:35:17.966Z,99.90
2022-09-04T05:38:09.575Z,99.90
2022-09-04T05:41:18.429Z,99.90
2022-09-04T05:44:32.483Z,99.90
2022-09-04T05:47:18.450Z,99.90
2022-09-04T05:50:21.373Z,99.90
2022-09-04T05:53:34.678Z,99.90
2022-09-04T05:56:41.980Z,99.90
2022-09-04T05:59:59.437Z,99.90
2022-09-04T06:03:07.046Z,99.90
2022-09-04T06:06:01.550Z,99.90
2022-09-04T06:08:49.447Z,99.90
2022-09-04T06:11:43.640Z,99.90
2022-09-04T06:14:59.113Z,99.90
2022-09-04T06:18:11.803Z,99.90
2022-09-04T06:21:32.883Z,99.90
2022-09-04T06:24:18.589Z,99.90
2022-09-04T06:27:07.255Z,99.90
2022-09-04T06:30:09.083Z,99.90
2022-09-04T06:33:06.175Z,99.90
2022-09-04T06:36:34.755Z,99.90
2022-09-04T06:39:19.339Z,99.90
2022-09-04T06:42:25.498Z,99.90
2022-09-04T06:45:09.779Z,99.90
2022-09-04T06:47:56.958Z,99.90
2022-09-04T06:50:53.890Z,99.90
2022-09-04T06:53:42.477Z,99.90
2022-09-04T06:56:51.202Z,99.90
2022-09-04T06:59:35.157Z,99.90
2022-09-04T07:02:25.979Z,99.90
2022-09-04T07:05:10.025Z,99.90
2022-09-04T07:07:57.665Z,99.90
2022-09-04T07:10:34.841Z,99.90
2022-09-04T07:13:38.860Z,99.90
2022-09-04T07:16:29.052Z,99.90
2022-09-04T07:19:15.200Z,99.90
2022-09-04T07:22:17.909Z,99.90
2022-09-04T07:25:18.763Z,99.90
2022-09-04T07:28:37.541Z,99.90
2022-09-04T07:31:26.820Z,99.90
2022-09-04T07:34:14.272Z,99.90
2022-09-04T07:36:57.970Z,99.90
2022-09-04T07:39:45.155Z,99.90
2022-09-04T07:42:20.760Z,99.90
2022-09-04T07:45:22.452Z,99.90
2022-09-04T07:48:23.715Z,99.90
2022-09-04T07:51:05.041Z,99.90
2022-09-04T07:54:22.741Z,99.20
2022-09-04T07:57:13.880Z,98.20
2022-09-04T07:59:56.397Z,97.70
2022-09-04T08:02:56.516Z,96.20
2022-09-04T08:05:52.378Z,95.50
2022-09-04T08:08:59.417Z,94.00
2022-09-04T08:11:38.014Z,93.40
2022-09-04T08:14:37.658Z,93.10
2022-09-04T08:17:41.436Z,92.60
2022-09-04T08:20:12.737Z,91.30
2022-09-04T08:23:11.774Z,90.30
2022-09-04T08:25:55.556Z,90.30
2022-09-04T08:28:48.373Z,87.10
2022-09-04T08:31:59.129Z,85.00
2022-09-04T08:35:07.410Z,84.60
2022-09-04T08:37:49.241Z,80.30
2022-09-04T08:41:06.937Z,79.20
2022-09-04T08:44:07.645Z,80.50
2022-09-04T08:47:20.232Z,79.70
2022-09-04T08:50:18.362Z,77.10
2022-09-04T08:53:03.706Z,76.80
2022-09-04T08:56:08.773Z,75.80
2022-09-04T08:59:24.708Z,77.10
2022-09-04T09:02:18.533Z,76.50
2022-09-04T09:05:40.534Z,76.30
2022-09-04T09:08:43.505Z,75.50
2022-09-04T09:11:59.740Z,73.60
2022-09-04T09:15:10.153Z,73.10
2022-09-04T09:17:59.952Z,71.80
2022-09-04T09:20:31.034Z,71.50
2022-09-04T09:23:28.578Z,70.30
2022-09-04T09:26:10.439Z,71.00
2022-09-04T09:28:56.842Z,69.70
2022-09-04T09:32:10.293Z,69.10
2022-09-04T09:35:08.868Z,69.00
2022-09-04T09:38:04.121Z,67.20
2022-09-04T09:41:08.742Z,66.20
2022-09-04T09:44:03.234Z,66.80
2022-09-04T09:47:03.454Z,64.50
2022-09-04T09:50:00.209Z,63.60
2022-09-04T09:52:47.507Z,63.70
2022-09-04T09:55:58.576Z,62.60
2022-09-04T09:59:22.377Z,60.80
2022-09-04T10:02:35.099Z,61.30
2022-09-04T10:05:57.159Z,60.70
2022-09-04T10:09:01.505Z,60.30
2022-09-04T10:12:33.172Z,59.80
2022-09-04T10:15:35.080Z,59.20
2022-09-04T10:18:23.081Z,60.00
2022-09-04T10:21:20.647Z,58.10
2022-09-04T10:24:21.262Z,59.40
2022-09-04T10:27:14.174Z,59.50
2022-09-04T10:30:10.925Z,59.20
2022-09-04T10:33:09.183Z,60.40
2022-09-04T10:36:12.539Z,60.30
2022-09-04T10:39:16.901Z,59.80
2022-09-04T10:42:08.638Z,59.80
2022-09-04T10:45:09.459Z,59.40
2022-09-04T10:47:55.513Z,60.10
2022-09-04T10:50:59.399Z,59.30
2022-09-04T10:53:54.693Z,59.10
2022-09-04T10:56:47.261Z,59.40
2022-09-04T11:00:06.124Z,58.90
2022-09-04T11:03:22.709Z,58.90
2022-09-04T11:06:30.981Z,58.40
2022-09-04T11:09:28.385Z,58.70
2022-09-04T11:12:23.540Z,57.90
2022-09-04T11:15:08.387Z,56.90
2022-09-04T11:18:03.580Z,56.30
2022-09-04T11:21:25.400Z,56.50
2022-09-04T11:24:03.828Z,56.20
2022-09-04T11:27:15.711Z,55.40
2022-09-04T11:30:02.373Z,55.60
2022-09-04T11:33:16.024Z,55.60
2022-09-04T11:36:05.856Z,56.20
2022-09-04T11:39:17.028Z,56.20
2022-09-04T11:42:27.613Z,57.20
2022-09-04T11:45:22.780Z,56.80
2022-09-04T11:48:23.102Z,56.90
2022-09-04T11:51:06.683Z,57.00
2022-09-04T11:54:40.203Z,57.00
2022-09-04T11:57:28.690Z,57.30
2022-09-04T12:00:13.132Z,58.10
2022-09-04T12:03:20.741Z,58.20
2022-09-04T12:06:26.614Z,57.90
2022-09-04T12:09:17.697Z,58.80
2022-09-04T12:12:11.505Z,58.70
2022-09-04T12:15:07.375Z,58.90
2022-09-04T12:18:09.188Z,59.40
2022-09-04T12:21:00.350Z,59.30
2022-09-04T12:24:07.657Z,60.10
2022-09-04T12:26:56.069Z,60.30
2022-09-04T12:30:05.349Z,59.80
2022-09-04T12:33:31.557Z,60.40
2022-09-04T12:36:36.784Z,60.90
2022-09-04T12:39:52.403Z,61.00
2022-09-04T12:43:32.712Z,62.40
2022-09-04T12:46:39.212Z,61.80
2022-09-04T12:49:32.879Z,62.40
2022-09-04T12:52:35.864Z,62.60
2022-09-04T12:55:22.955Z,63.30
2022-09-04T12:58:17.807Z,63.20
2022-09-04T13:01:15.985Z,63.30
2022-09-04T13:04:11.755Z,63.40
2022-09-04T13:07:15.926Z,63.40
2022-09-04T13:10:16.815Z,63.10
2022-09-04T13:13:07.822Z,63.30
2022-09-04T13:16:15.838Z,63.70
2022-09-04T13:19:22.842Z,62.90
2022-09-04T13:22:36.463Z,63.30
2022-09-04T13:25:19.116Z,60.90
2022-09-04T13:28:02.314Z,60.60
2022-09-04T13:30:31.986Z,60.80
2022-09-04T13:33:39.698Z,63.40
2022-09-04T13:36:49.385Z,63.50
2022-09-04T13:39:29.160Z,63.00
2022-09-04T13:42:15.048Z,62.70
2022-09-04T13:45:05.549Z,62.50
2022-09-04T13:47:58.372Z,63.40
2022-09-04T13:50:57.070Z,63.50
2022-09-04T13:53:35.661Z,63.40
2022-09-04T13:56:19.580Z,62.60
2022-09-04T13:58:51.381Z,63.10
2022-09-04T14:01:25.661Z,62.40
2022-09-04T14:04:11.379Z,62.60
2022-09-04T14:06:38.941Z,62.50
2022-09-04T14:09:06.697Z,61.90
2022-09-04T14:12:07.856Z,61.80
2022-09-04T14:15:07.645Z,62.10
2022-09-04T14:18:22.605Z,61.80
2022-09-04T14:24:10.749Z,61.20
2022-09-04T14:27:20.318Z,61.40
2022-09-04T14:30:23.565Z,62.50
2022-09-04T14:32:06.634Z,61.00
2022-09-04T14:33:36.092Z,62.00
2022-09-04T14:36:25.352Z,62.80
2022-09-04T14:39:22.738Z,62.70
2022-09-04T14:42:27.401Z,61.90
2022-09-04T14:45:48.481Z,62.10
2022-09-04T14:48:17.620Z,62.40
2022-09-04T14:50:57.628Z,61.60
2022-09-04T14:53:34.711Z,62.60
2022-09-04T14:56:07.638Z,62.10
2022-09-04T14:58:41.726Z,62.80
2022-09-04T15:01:20.201Z,63.00
2022-09-04T15:04:06.479Z,63.40
2022-09-04T15:07:07.987Z,63.20
2022-09-04T15:09:43.267Z,63.80
2022-09-04T15:12:28.404Z,63.70
2022-09-04T15:15:22.822Z,64.40
2022-09-04T15:18:02.095Z,63.80
2022-09-04T15:20:34.329Z,64.30
2022-09-04T15:23:38.889Z,64.60
2022-09-04T15:26:19.869Z,65.00
2022-09-04T15:28:54.005Z,65.20
2022-09-04T15:31:32.278Z,65.20
2022-09-04T15:34:08.417Z,65.10
2022-09-04T15:36:37.739Z,65.60
2022-09-04T15:39:29.218Z,65.60
2022-09-04T15:41:56.113Z,65.50
2022-09-04T15:44:29.762Z,66.00
2022-09-04T15:47:20.983Z,65.90
2022-09-04T15:49:58.524Z,65.70
2022-09-04T15:52:43.227Z,65.90
2022-09-04T15:55:26.879Z,66.00
2022-09-04T15:58:04.699Z,66.20
2022-09-04T16:00:38.185Z,66.30
2022-09-04T16:03:29.179Z,66.50
2022-09-04T16:06:08.725Z,65.90
2022-09-04T16:09:00.530Z,65.50
2022-09-04T16:11:42.569Z,65.90
2022-09-04T16:14:26.001Z,65.50
2022-09-04T16:17:00.974Z,65.60
2022-09-04T16:19:48.486Z,66.10
2022-09-04T16:22:32.551Z,66.20
2022-09-04T16:25:11.043Z,66.40
2022-09-04T16:27:51.711Z,67.60
2022-09-04T16:30:33.069Z,66.40
2022-09-04T16:33:01.931Z,66.50
2022-09-04T16:35:37.013Z,66.60
2022-09-04T16:38:23.534Z,66.70
2022-09-04T16:41:13.466Z,66.90
2022-09-04T16:43:40.498Z,67.00
2022-09-04T16:46:29.509Z,67.30
2022-09-04T16:49:07.230Z,67.50
2022-09-04T16:52:22.673Z,67.40
2022-09-04T16:55:15.612Z,67.60
2022-09-04T16:58:18.794Z,68.10
2022-09-04T17:01:15.794Z,68.40
2022-09-04T17:04:12.444Z,68.50
2022-09-04T17:07:02.801Z,68.60
2022-09-04T17:10:01.739Z,68.80
2022-09-04T17:12:40.535Z,69.30
2022-09-04T17:15:22.673Z,69.40
2022-09-04T17:17:51.130Z,69.90
2022-09-04T17:26:25.339Z,69.70
2022-09-04T17:28:46.080Z,69.90
2022-09-04T17:29:08.798Z,70.40
2022-09-04T17:30:29.174Z,71.20
2022-09-04T17:35:23.726Z,70.60
2022-09-04T17:40:38.845Z,70.70
2022-09-04T17:40:40.195Z,71.20
2022-09-04T17:43:22.194Z,71.20
2022-09-04T17:46:29.497Z,71.40
2022-09-04T17:48:56.722Z,71.90
2022-09-04T17:51:28.497Z,71.90
2022-09-04T17:54:02.247Z,72.60
2022-09-04T17:56:42.485Z,74.10
2022-09-04T17:59:20.112Z,73.70
2022-09-04T18:02:20.997Z,73.20
2022-09-04T18:05:42.538Z,73.20
2022-09-04T18:08:32.466Z,73.40
2022-09-04T18:11:20.628Z,74.30
2022-09-04T18:14:01.181Z,74.20
2022-09-04T18:16:42.428Z,74.10
2022-09-04T18:19:47.032Z,75.50
2022-09-04T18:23:08.959Z,76.00
2022-09-04T18:25:55.824Z,75.30
2022-09-04T18:28:34.334Z,76.80
2022-09-04T18:37:06.586Z,77.50
2022-09-04T18:37:20.792Z,78.00
2022-09-04T18:38:26.850Z,78.60
2022-09-04T18:43:31.169Z,78.80
2022-09-04T18:50:24.131Z,77.00
2022-09-04T18:50:42.920Z,78.20
2022-09-04T18:50:48.101Z,78.20
2022-09-04T18:52:20.480Z,78.90
2022-09-04T18:54:57.239Z,79.60
2022-09-04T18:57:48.177Z,80.30
2022-09-04T19:00:34.801Z,79.10
2022-09-04T19:03:26.114Z,79.30
2022-09-04T19:06:00.771Z,79.40
2022-09-04T19:08:37.577Z,80.00
2022-09-04T19:11:21.673Z,79.90
2022-09-04T19:14:09.895Z,80.50
2022-09-04T19:16:46.571Z,81.90
2022-09-04T19:19:31.733Z,82.00
2022-09-04T19:22:32.328Z,82.50
2022-09-04T19:25:07.704Z,82.80
2022-09-04T19:27:46.513Z,83.50
2022-09-04T19:30:24.016Z,83.90
2022-09-04T19:33:03.580Z,83.80
2022-09-04T19:35:46.192Z,83.70
2022-09-04T19:40:57.061Z,84.30
2022-09-04T19:46:08.898Z,84.20
2022-09-04T19:46:12.083Z,84.10
2022-09-04T19:47:46.549Z,84.60
2022-09-04T19:53:18.915Z,85.90
2022-09-04T19:53:37.806Z,86.30
2022-09-04T19:56:38.088Z,87.50
2022-09-04T19:59:30.739Z,87.80
2022-09-04T20:01:59.549Z,87.70
2022-09-04T20:04:46.979Z,87.70
2022-09-04T20:07:41.117Z,88.10
2022-09-04T20:10:22.843Z,88.90
2022-09-04T20:13:28.403Z,90.50
2022-09-04T20:16:20.117Z,90.00
2022-09-04T20:19:07.104Z,90.10
2022-09-04T20:22:04.900Z,90.60
2022-09-04T20:24:59.125Z,90.60
2022-09-04T20:28:15.391Z,90.90
2022-09-04T20:31:01.601Z,90.90
2022-09-04T20:33:35.294Z,91.10
2022-09-04T20:36:10.538Z,91.30
2022-09-04T20:38:44.841Z,91.80
2022-09-04T20:41:35.170Z,91.90
2022-09-04T20:44:24.528Z,92.30
2022-09-04T20:52:49.680Z,92.10
2022-09-04T20:52:52.240Z,92.20
2022-09-04T20:53:57.628Z,92.50
2022-09-04T20:57:43.566Z,92.50
2022-09-04T21:03:08.776Z,92.60
2022-09-04T21:03:11.326Z,92.80
2022-09-04T21:05:59.990Z,93.00
2022-09-04T21:08:52.241Z,92.90
2022-09-04T21:11:40.534Z,93.40
2022-09-04T21:14:18.550Z,93.50
2022-09-04T21:17:35.259Z,93.80
2022-09-04T21:20:17.098Z,93.80
2022-09-04T21:23:18.011Z,94.50
2022-09-04T21:26:22.713Z,94.40
2022-09-04T21:29:23.866Z,94.80
2022-09-04T21:32:43.412Z,94.80
2022-09-04T21:35:24.914Z,94.60
2022-09-04T21:38:07.476Z,95.00
2022-09-04T21:41:08.121Z,95.30
2022-09-04T21:44:13.780Z,95.60
2022-09-04T21:47:08.401Z,95.90
2022-09-04T21:49:56.652Z,96.20
2022-09-04T21:53:11.709Z,96.40
2022-09-04T21:59:38.101Z,96.50
2022-09-04T22:02:35.103Z,96.80
2022-09-04T22:03:11.976Z,97.10
2022-09-04T22:06:14.199Z,97.30
2022-09-04T22:13:28.898Z,97.80
2022-09-04T22:13:41.543Z,98.00
2022-09-04T22:15:02.570Z,98.20
2022-09-04T22:18:00.312Z,98.40
2022-09-04T22:21:15.144Z,98.50
2022-09-04T22:24:10.571Z,98.80
2022-09-04T22:27:04.290Z,99.30
2022-09-04T22:29:59.533Z,99.80
2022-09-04T22:33:14.514Z,99.50
2022-09-04T22:36:29.262Z,99.80
2022-09-04T22:39:11.274Z,99.90
2022-09-04T22:41:52.718Z,99.90
2022-09-04T22:44:56.421Z,99.90
2022-09-04T22:48:17.189Z,99.90
2022-09-04T22:51:10.458Z,99.90
2022-09-04T22:54:36.944Z,99.90
2022-09-04T22:57:27.764Z,99.90
2022-09-04T23:00:12.024Z,99.90
2022-09-04T23:03:19.842Z,99.90
2022-09-04T23:06:18.854Z,99.90
2022-09-04T23:14:00.284Z,99.90
2022-09-04T23:14:00.284Z,99.90
2022-09-04T23:16:46.499Z,99.90
2022-09-04T23:24:50.461Z,99.90
2022-09-04T23:26:46.819Z,99.90
2022-09-04T23:27:01.049Z,99.90
2022-09-04T23:29:59.370Z,99.90
2022-09-04T23:32:32.144Z,99.90
2022-09-04T23:35:15.772Z,99.90
2022-09-04T23:38:26.376Z,99.90
2022-09-04T23:41:14.482Z,99.90
2022-09-04T23:44:25.658Z,99.90
2022-09-04T23:47:49.563Z,99.90
2022-09-04T23:50:48.808Z,99.90
2022-09-04T23:53:52.777Z,99.90
2022-09-04T23:56:46.834Z,99.90
2022-09-04T23:59:39.029Z,99.90
